Cape Lisburne, Alaska
Current Conditions -  °F | °C
As of 3:24 AM on Friday 24 Oct 2014 (Local Time) from PALU Reporting Station
Freezing Rain Freezing Rain  
Wind Chill: 16°   Ceiling: 1100
Heat Index: 32°   Visibility: 3mi
Dew Point: 28°   Wind: 38mph
Humidity: 87%   Direction: 230°SW
Pressure: 29.47"   Gusts: 44mph
Location:  68.88°N, 166.11°W
Report Text: PALU 241124Z AUTO 23033G38KT 3SM -FZRA BR BKN011 00/M02 A2947 RMK AO2 PK WND 20041/1104 SLP978
Loading
Personal Weather Stations






























Interactive Weather Map
Tropical Storm Tracking
New forecast layout! Learn more

10-Day Weather Forecast

Advertisements
Track Severe Weather on mobile